createdAt,value
2018-07-02T00:00:22.911Z,20.88
2018-07-02T00:01:22.912Z,20.81
2018-07-02T00:02:26.274Z,20.75
2018-07-02T00:03:22.987Z,20.81
2018-07-02T00:04:22.833Z,20.75
2018-07-02T00:05:22.924Z,20.75
2018-07-02T00:06:26.306Z,20.75
2018-07-02T00:07:22.874Z,20.75
2018-07-02T00:08:22.855Z,20.75
2018-07-02T00:09:22.982Z,20.75
2018-07-02T00:10:26.036Z,20.69
2018-07-02T00:11:22.905Z,20.69
2018-07-02T00:12:22.981Z,20.69
2018-07-02T00:13:22.929Z,20.69
2018-07-02T00:14:22.957Z,20.69
2018-07-02T00:15:22.847Z,20.69
2018-07-02T00:16:22.908Z,20.69
2018-07-02T00:17:22.960Z,20.62
2018-07-02T00:18:22.920Z,20.62
2018-07-02T00:19:26.824Z,20.62
2018-07-02T00:20:22.927Z,20.62
2018-07-02T00:21:22.877Z,20.62
2018-07-02T00:22:22.896Z,20.62
2018-07-02T00:23:26.051Z,20.56
2018-07-02T00:24:22.862Z,20.5
2018-07-02T00:25:23.021Z,20.5
2018-07-02T00:26:23.077Z,20.5
2018-07-02T00:27:26.324Z,20.5
2018-07-02T00:28:22.984Z,20.5
2018-07-02T00:29:22.937Z,20.5
2018-07-02T00:30:23.080Z,20.44
2018-07-02T00:31:26.409Z,20.37
2018-07-02T00:32:23.534Z,20.37
2018-07-02T00:33:22.930Z,20.37
2018-07-02T00:34:22.938Z,20.37
2018-07-02T00:35:25.596Z,20.37
2018-07-02T00:36:22.995Z,20.31
2018-07-02T00:37:22.939Z,20.31
2018-07-02T00:38:25.857Z,20.31
2018-07-02T00:39:22.965Z,20.31
2018-07-02T00:40:26.731Z,20.31
2018-07-02T00:41:22.879Z,20.31
2018-07-02T00:42:22.987Z,20.31
2018-07-02T00:43:22.991Z,20.31
2018-07-02T00:44:22.913Z,20.31
2018-07-02T00:45:23.478Z,20.25
2018-07-02T00:46:22.971Z,20.25
2018-07-02T00:47:23.169Z,20.19
2018-07-02T00:48:22.928Z,20.19
2018-07-02T00:49:23.135Z,20.12
2018-07-02T00:50:22.948Z,20.12
2018-07-02T00:51:22.938Z,20.12
2018-07-02T00:52:22.934Z,20.12
2018-07-02T00:53:29.421Z,20.12
2018-07-02T00:54:23.563Z,20.12
2018-07-02T00:55:22.980Z,20.12
2018-07-02T00:56:23.716Z,20.06
2018-07-02T00:57:27.810Z,20.06
2018-07-02T00:58:23.875Z,20
2018-07-02T00:59:22.904Z,20
2018-07-02T01:00:27.103Z,19.94
2018-07-02T01:01:23.306Z,19.94
2018-07-02T01:02:22.931Z,19.94
2018-07-02T01:03:23.076Z,19.87
2018-07-02T01:04:23.092Z,19.87
2018-07-02T01:05:23.036Z,19.94
2018-07-02T01:06:23.971Z,19.87
2018-07-02T01:07:26.023Z,19.87
2018-07-02T01:08:24.451Z,19.87
2018-07-02T01:09:22.950Z,19.87
2018-07-02T01:10:24.474Z,19.87
2018-07-02T01:11:23.811Z,19.81
2018-07-02T01:12:22.941Z,19.81
2018-07-02T01:13:22.938Z,19.87
2018-07-02T01:14:22.987Z,19.87
2018-07-02T01:15:26.155Z,19.87
2018-07-02T01:16:22.954Z,19.87
2018-07-02T01:17:22.919Z,19.81
2018-07-02T01:18:23.059Z,19.87
2018-07-02T01:19:23.041Z,19.81
2018-07-02T01:20:22.909Z,19.81
2018-07-02T01:21:23.043Z,19.81
2018-07-02T01:22:22.954Z,19.75
2018-07-02T01:23:24.754Z,19.75
2018-07-02T01:24:24.512Z,19.75
2018-07-02T01:25:23.067Z,19.69
2018-07-02T01:26:26.623Z,19.69
2018-07-02T01:27:22.987Z,19.62
2018-07-02T01:28:23.007Z,19.69
2018-07-02T01:29:25.506Z,19.69
2018-07-02T01:30:22.978Z,19.56
2018-07-02T01:31:22.914Z,19.56
2018-07-02T01:32:26.511Z,19.56
2018-07-02T01:33:26.352Z,19.5
2018-07-02T01:34:26.311Z,19.56
2018-07-02T01:35:22.941Z,19.56
2018-07-02T01:36:26.683Z,19.5
2018-07-02T01:37:27.896Z,19.56
2018-07-02T01:38:23.012Z,19.5
2018-07-02T01:39:26.398Z,19.5
2018-07-02T01:40:22.980Z,19.5
2018-07-02T01:41:22.981Z,19.5
2018-07-02T01:42:22.912Z,19.5
2018-07-02T01:43:23.011Z,19.44
2018-07-02T01:44:23.282Z,19.44
2018-07-02T01:45:26.754Z,19.44
2018-07-02T01:46:23.037Z,19.37
2018-07-02T01:47:22.970Z,19.37
2018-07-02T01:48:26.102Z,19.37
2018-07-02T01:49:23.014Z,19.37
2018-07-02T01:50:22.952Z,19.37
2018-07-02T01:51:26.498Z,19.37
2018-07-02T01:52:23.055Z,19.37
2018-07-02T01:53:23.024Z,19.37
2018-07-02T01:54:23.186Z,19.31
2018-07-02T01:55:22.942Z,19.31
2018-07-02T01:56:22.983Z,19.31
2018-07-02T01:57:22.948Z,19.31
2018-07-02T01:58:27.056Z,19.31
2018-07-02T01:59:23.074Z,19.25
2018-07-02T02:00:22.967Z,19.25
2018-07-02T02:01:22.986Z,19.25
2018-07-02T02:02:26.664Z,19.25
2018-07-02T02:03:22.944Z,19.19
2018-07-02T02:04:22.957Z,19.25
2018-07-02T02:05:22.934Z,19.19
2018-07-02T02:06:24.003Z,19.19
2018-07-02T02:07:22.969Z,19.19
2018-07-02T02:08:22.907Z,19.12
2018-07-02T02:09:22.916Z,19.12
2018-07-02T02:10:22.921Z,19.12
2018-07-02T02:11:22.956Z,19.12
2018-07-02T02:12:22.958Z,19.06
2018-07-02T02:13:23.011Z,19.06
2018-07-02T02:14:22.948Z,19
2018-07-02T02:15:23.831Z,19
2018-07-02T02:16:22.918Z,19
2018-07-02T02:17:22.900Z,19
2018-07-02T02:18:22.976Z,19
2018-07-02T02:19:22.947Z,19
2018-07-02T02:20:22.976Z,18.94
2018-07-02T02:21:23.058Z,19
2018-07-02T02:22:23.059Z,18.94
2018-07-02T02:23:26.388Z,18.94
2018-07-02T02:24:23.072Z,18.94
2018-07-02T02:25:22.935Z,18.94
2018-07-02T02:26:22.945Z,18.87
2018-07-02T02:27:26.266Z,18.87
2018-07-02T02:28:22.957Z,18.87
2018-07-02T02:29:23.007Z,18.87
2018-07-02T02:30:22.976Z,18.81
2018-07-02T02:31:26.810Z,18.81
2018-07-02T02:32:23.086Z,18.81
2018-07-02T02:33:22.934Z,18.75
2018-07-02T02:34:23.001Z,18.81
2018-07-02T02:35:24.208Z,18.81
2018-07-02T02:36:22.992Z,18.81
2018-07-02T02:37:23.067Z,18.75
2018-07-02T02:38:24.058Z,18.75
2018-07-02T02:39:23.326Z,18.75
2018-07-02T02:40:23.086Z,18.75
2018-07-02T02:41:23.022Z,18.56
2018-07-02T02:42:23.007Z,18.62
2018-07-02T02:43:23.146Z,18.5
2018-07-02T02:44:22.947Z,18.5
2018-07-02T02:45:23.017Z,18.5
2018-07-02T02:46:23.015Z,18.5
2018-07-02T02:47:22.990Z,18.5
2018-07-02T02:48:22.937Z,18.56
2018-07-02T02:49:22.988Z,18.5
2018-07-02T02:50:22.965Z,18.5
2018-07-02T02:51:23.033Z,18.56
2018-07-02T02:52:22.963Z,18.5
2018-07-02T02:53:22.972Z,18.5
2018-07-02T02:54:22.982Z,18.31
2018-07-02T02:55:23.025Z,18.37
2018-07-02T02:56:22.965Z,18.31
2018-07-02T02:57:23.006Z,18.31
2018-07-02T02:58:22.948Z,18.25
2018-07-02T02:59:23.042Z,18.19
2018-07-02T03:00:26.748Z,18.19
2018-07-02T03:01:23.060Z,18.25
2018-07-02T03:02:22.988Z,18.25
2018-07-02T03:03:22.964Z,18.25
2018-07-02T03:04:26.614Z,18.25
2018-07-02T03:05:22.998Z,18.25
2018-07-02T03:06:22.995Z,18.25
2018-07-02T03:07:22.965Z,18.25
2018-07-02T03:08:23.037Z,18.19
2018-07-02T03:09:23.896Z,18.25
2018-07-02T03:10:23.030Z,18.19
2018-07-02T03:11:23.298Z,18.19
2018-07-02T03:12:23.005Z,18.19
2018-07-02T03:13:25.987Z,18.19
2018-07-02T03:14:23.055Z,18.19
2018-07-02T03:15:23.085Z,18.12
2018-07-02T03:16:23.065Z,18.19
2018-07-02T03:17:26.613Z,18.19
2018-07-02T03:18:23.169Z,18.19
2018-07-02T03:19:22.983Z,18.12
2018-07-02T03:20:23.743Z,18.06
2018-07-02T03:21:25.311Z,18.12
2018-07-02T03:22:23.052Z,18.12
2018-07-02T03:23:23.296Z,18.06
2018-07-02T03:24:23.036Z,18.12
2018-07-02T03:25:24.261Z,18
2018-07-02T03:26:22.998Z,18
2018-07-02T03:27:23.100Z,18.06
2018-07-02T03:28:23.125Z,18
2018-07-02T03:29:24.668Z,18.06
2018-07-02T03:30:23.156Z,18.06
2018-07-02T03:31:23.194Z,18
2018-07-02T03:32:23.211Z,18
2018-07-02T03:33:23.907Z,18
2018-07-02T03:34:23.025Z,18.06
2018-07-02T03:35:23.057Z,18.06
2018-07-02T03:36:23.048Z,18
2018-07-02T03:37:26.094Z,18
2018-07-02T03:38:23.022Z,17.87
2018-07-02T03:39:23.095Z,17.94
2018-07-02T03:40:23.089Z,17.94
2018-07-02T03:41:26.583Z,17.94
2018-07-02T03:42:23.015Z,17.94
2018-07-02T03:43:23.039Z,17.94
2018-07-02T03:44:27.136Z,17.94
2018-07-02T03:45:26.805Z,18
2018-07-02T03:46:23.030Z,17.94
2018-07-02T03:47:23.219Z,17.87
2018-07-02T03:48:23.056Z,17.94
2018-07-02T03:49:25.783Z,17.94
2018-07-02T03:50:23.054Z,17.87
2018-07-02T03:51:23.067Z,17.87
2018-07-02T03:52:23.282Z,17.87
2018-07-02T03:53:25.948Z,17.87
2018-07-02T03:54:23.102Z,17.87
2018-07-02T03:55:23.135Z,17.87
2018-07-02T03:56:23.088Z,17.94
2018-07-02T03:57:25.868Z,17.87
2018-07-02T03:58:23.131Z,17.87
2018-07-02T03:59:23.084Z,17.87
2018-07-02T04:00:23.042Z,17.87
2018-07-02T04:01:26.734Z,17.87
2018-07-02T04:02:23.042Z,17.87
2018-07-02T04:03:23.104Z,17.87
2018-07-02T04:04:23.068Z,17.87
2018-07-02T04:05:26.514Z,17.87
2018-07-02T04:06:23.065Z,17.87
2018-07-02T04:07:23.061Z,17.81
2018-07-02T04:08:23.066Z,17.81
2018-07-02T04:09:26.158Z,17.81
2018-07-02T04:10:23.028Z,17.75
2018-07-02T04:11:23.087Z,17.81
2018-07-02T04:12:23.077Z,17.81
2018-07-02T04:13:27.200Z,17.81
2018-07-02T04:14:23.096Z,17.81
2018-07-02T04:15:23.127Z,17.87
2018-07-02T04:16:26.142Z,17.81
2018-07-02T04:17:23.110Z,17.81
2018-07-02T04:18:27.559Z,17.81
2018-07-02T04:19:27.593Z,17.81
2018-07-02T04:20:25.074Z,17.81
2018-07-02T04:21:26.036Z,17.87
2018-07-02T04:22:23.264Z,17.81
2018-07-02T04:23:26.611Z,17.81
2018-07-02T04:24:23.087Z,17.81
2018-07-02T04:25:26.679Z,17.81
2018-07-02T04:26:23.157Z,17.75
2018-07-02T04:27:23.183Z,17.81
2018-07-02T04:28:25.598Z,17.81
2018-07-02T04:29:23.123Z,17.81
2018-07-02T04:30:23.229Z,17.81
2018-07-02T04:31:23.125Z,17.87
2018-07-02T04:32:23.199Z,17.81
2018-07-02T04:33:23.194Z,17.81
2018-07-02T04:34:23.237Z,17.87
2018-07-02T04:35:23.162Z,17.87
2018-07-02T04:36:23.206Z,17.81
2018-07-02T04:37:23.165Z,17.87
2018-07-02T04:38:23.322Z,17.81
2018-07-02T04:39:23.266Z,17.75
2018-07-02T04:40:30.482Z,17.81
2018-07-02T04:41:26.729Z,17.81
2018-07-02T04:42:23.239Z,17.81
2018-07-02T04:43:26.197Z,17.81
2018-07-02T04:44:26.863Z,17.81
2018-07-02T04:45:26.418Z,17.81
2018-07-02T04:46:23.375Z,17.75
2018-07-02T04:47:31.658Z,17.81
2018-07-02T04:48:27.927Z,17.81
2018-07-02T04:49:27.136Z,17.81
2018-07-02T04:50:26.782Z,17.87
2018-07-02T04:51:26.840Z,17.81
2018-07-02T04:52:26.791Z,17.87
2018-07-02T04:53:23.230Z,17.87
2018-07-02T04:54:28.144Z,17.87
2018-07-02T04:55:27.114Z,17.87
2018-07-02T04:56:27.773Z,17.87
2018-07-02T04:57:24.357Z,17.87
2018-07-02T04:58:27.767Z,17.87
2018-07-02T04:59:23.268Z,17.87
2018-07-02T05:00:23.115Z,17.81
2018-07-02T05:01:23.088Z,17.81
2018-07-02T05:02:23.120Z,17.81
2018-07-02T05:03:23.090Z,17.81
2018-07-02T05:04:23.100Z,17.87
2018-07-02T05:05:23.106Z,17.87
2018-07-02T05:06:23.080Z,17.87
2018-07-02T05:07:23.144Z,17.87
2018-07-02T05:08:23.311Z,17.87
2018-07-02T05:09:23.114Z,17.87
2018-07-02T05:10:23.137Z,17.94
2018-07-02T05:11:23.083Z,17.94
2018-07-02T05:12:23.139Z,17.87
2018-07-02T05:13:23.039Z,17.94
2018-07-02T05:14:23.788Z,17.94
2018-07-02T05:15:23.054Z,17.87
2018-07-02T05:16:23.059Z,17.94
2018-07-02T05:17:23.017Z,17.94
2018-07-02T05:18:23.249Z,17.94
2018-07-02T05:19:23.230Z,17.94
2018-07-02T05:20:23.084Z,17.94
2018-07-02T05:21:23.093Z,17.94
2018-07-02T05:22:24.435Z,17.94
2018-07-02T05:23:23.029Z,18
2018-07-02T05:24:23.071Z,18
2018-07-02T05:25:23.085Z,17.94
2018-07-02T05:26:23.085Z,17.94
2018-07-02T05:27:23.079Z,17.94
2018-07-02T05:28:23.082Z,17.94
2018-07-02T05:29:23.092Z,17.94
2018-07-02T05:30:23.056Z,18
2018-07-02T05:31:23.415Z,18.06
2018-07-02T05:32:23.088Z,18.06
2018-07-02T05:33:23.077Z,18
2018-07-02T05:34:23.106Z,18.06
2018-07-02T05:35:23.286Z,18.06
2018-07-02T05:36:23.058Z,18.06
2018-07-02T05:37:23.112Z,18.06
2018-07-02T05:38:23.063Z,18.06
2018-07-02T05:39:23.111Z,18.06
2018-07-02T05:40:23.344Z,18.06
2018-07-02T05:41:23.372Z,18.06
2018-07-02T05:42:23.140Z,18
2018-07-02T05:43:23.191Z,18.06
2018-07-02T05:44:23.157Z,18.12
2018-07-02T05:45:23.075Z,18.12
2018-07-02T05:46:23.069Z,18.12
2018-07-02T05:47:23.061Z,18.12
2018-07-02T05:48:23.094Z,18.19
2018-07-02T05:49:23.161Z,18.25
2018-07-02T05:50:23.119Z,18.31
2018-07-02T05:51:23.095Z,18.25
2018-07-02T05:52:23.371Z,18.31
2018-07-02T05:53:23.066Z,18.31
2018-07-02T05:54:23.083Z,18.31
2018-07-02T05:55:23.087Z,18.37
2018-07-02T05:56:23.081Z,18.37
2018-07-02T05:57:23.097Z,18.37
2018-07-02T05:58:23.356Z,18.44
2018-07-02T05:59:23.080Z,18.44
2018-07-02T06:00:24.599Z,18.5
2018-07-02T06:01:23.096Z,18.5
2018-07-02T06:02:23.105Z,18.44
2018-07-02T06:03:23.174Z,18.56
2018-07-02T06:04:23.110Z,18.5
2018-07-02T06:05:23.097Z,18.56
2018-07-02T06:06:23.100Z,18.56
2018-07-02T06:07:23.165Z,18.44
2018-07-02T06:08:23.080Z,18.5
2018-07-02T06:09:23.198Z,18.44
2018-07-02T06:10:23.165Z,18.5
2018-07-02T06:11:23.139Z,18.56
2018-07-02T06:12:23.348Z,18.56
2018-07-02T06:13:23.287Z,18.56
2018-07-02T06:14:23.130Z,18.56
2018-07-02T06:15:23.069Z,18.62
2018-07-02T06:16:24.574Z,18.69
2018-07-02T06:17:23.098Z,18.69
2018-07-02T06:18:23.159Z,18.75
2018-07-02T06:19:23.119Z,18.75
2018-07-02T06:20:23.148Z,18.75
2018-07-02T06:21:23.131Z,18.75
2018-07-02T06:22:23.347Z,18.75
2018-07-02T06:23:23.424Z,18.81
2018-07-02T06:24:23.126Z,18.87
2018-07-02T06:25:23.193Z,18.87
2018-07-02T06:26:23.135Z,18.87
2018-07-02T06:27:23.187Z,18.94
2018-07-02T06:28:23.136Z,18.94
2018-07-02T06:29:23.332Z,19
2018-07-02T06:30:23.595Z,18.94
2018-07-02T06:31:23.123Z,19
2018-07-02T06:32:23.657Z,19
2018-07-02T06:33:23.118Z,19.06
2018-07-02T06:34:23.194Z,19.06
2018-07-02T06:35:23.141Z,19.06
2018-07-02T06:36:23.131Z,19.12
2018-07-02T06:37:23.146Z,19.19
2018-07-02T06:38:23.135Z,19.19
2018-07-02T06:39:23.199Z,19.12
2018-07-02T06:40:23.132Z,19.19
2018-07-02T06:41:23.241Z,19.19
2018-07-02T06:42:23.142Z,19.19
2018-07-02T06:43:23.145Z,19.19
2018-07-02T06:44:23.113Z,19.25
2018-07-02T06:45:23.158Z,19.25
2018-07-02T06:46:23.145Z,19.25
2018-07-02T06:47:23.386Z,19.25
2018-07-02T06:48:23.521Z,19.25
2018-07-02T06:49:23.155Z,19.25
2018-07-02T06:50:23.348Z,19.31
2018-07-02T06:51:23.207Z,19.31
2018-07-02T06:52:23.179Z,19.37
2018-07-02T06:53:23.203Z,19.37
2018-07-02T06:54:23.200Z,19.44
2018-07-02T06:55:23.279Z,19.5
2018-07-02T06:56:23.186Z,19.5
2018-07-02T06:57:23.322Z,19.56
2018-07-02T06:58:23.187Z,19.56
2018-07-02T06:59:23.194Z,19.62
2018-07-02T07:00:23.122Z,19.69
2018-07-02T07:01:23.237Z,19.69
2018-07-02T07:02:23.198Z,19.75
2018-07-02T07:03:23.197Z,19.75
2018-07-02T07:04:23.175Z,19.75
2018-07-02T07:05:23.159Z,19.81
2018-07-02T07:06:23.245Z,19.87
2018-07-02T07:07:23.226Z,19.87
2018-07-02T07:08:23.151Z,19.87
2018-07-02T07:09:23.233Z,19.94
2018-07-02T07:10:23.137Z,19.94
2018-07-02T07:11:23.162Z,19.94
2018-07-02T07:12:23.186Z,19.87
2018-07-02T07:13:23.185Z,19.87
2018-07-02T07:14:23.171Z,19.94
2018-07-02T07:15:23.174Z,19.87
2018-07-02T07:16:23.188Z,19.81
2018-07-02T07:17:23.210Z,19.81
2018-07-02T07:18:23.221Z,19.87
2018-07-02T07:19:23.233Z,19.87
2018-07-02T07:20:23.162Z,19.94
2018-07-02T07:21:23.175Z,20
2018-07-02T07:22:23.174Z,20
2018-07-02T07:23:23.254Z,20.06
2018-07-02T07:24:23.351Z,20.12
2018-07-02T07:25:23.374Z,20.19
2018-07-02T07:26:23.207Z,20.19
2018-07-02T07:27:23.184Z,20.25
2018-07-02T07:28:23.201Z,20.25
2018-07-02T07:29:23.196Z,20.25
2018-07-02T07:30:23.207Z,20.25
2018-07-02T07:31:23.214Z,20.19
2018-07-02T07:32:23.214Z,20.19
2018-07-02T07:33:23.196Z,20.19
2018-07-02T07:34:23.210Z,20.25
2018-07-02T07:35:23.283Z,20.31
2018-07-02T07:36:23.219Z,20.31
2018-07-02T07:37:23.533Z,20.37
2018-07-02T07:38:23.196Z,20.37
2018-07-02T07:39:23.185Z,20.44
2018-07-02T07:40:23.240Z,20.5
2018-07-02T07:41:23.235Z,20.5
2018-07-02T07:42:23.186Z,20.56
2018-07-02T07:43:23.234Z,20.56
2018-07-02T07:44:23.241Z,20.56
2018-07-02T07:45:23.235Z,20.56
2018-07-02T07:46:23.191Z,20.62
2018-07-02T07:47:23.315Z,20.62
2018-07-02T07:48:23.200Z,20.62
2018-07-02T07:49:23.329Z,20.69
2018-07-02T07:50:23.249Z,20.69
2018-07-02T07:51:23.222Z,20.75
2018-07-02T07:52:23.200Z,20.81
2018-07-02T07:53:23.280Z,20.88
2018-07-02T07:54:23.202Z,20.94
2018-07-02T07:55:23.352Z,21
2018-07-02T07:56:23.213Z,21
2018-07-02T07:57:23.272Z,21
2018-07-02T07:58:23.198Z,21
2018-07-02T07:59:23.629Z,21
2018-07-02T08:00:23.221Z,21
2018-07-02T08:01:23.322Z,21.06
2018-07-02T08:02:23.226Z,21.12
2018-07-02T08:03:23.209Z,21.12
2018-07-02T08:04:23.230Z,21.19
2018-07-02T08:05:23.253Z,21.25
2018-07-02T08:06:23.257Z,21.25
2018-07-02T08:07:23.224Z,21.31
2018-07-02T08:08:23.219Z,21.31
2018-07-02T08:09:23.238Z,21.31
2018-07-02T08:10:23.578Z,21.44
2018-07-02T08:11:23.289Z,21.44
2018-07-02T08:12:23.629Z,21.44
2018-07-02T08:13:23.322Z,21.44
2018-07-02T08:14:23.283Z,21.5
2018-07-02T08:15:23.452Z,21.5
2018-07-02T08:16:23.500Z,21.56
2018-07-02T08:17:23.261Z,21.56
2018-07-02T08:18:23.230Z,21.62
2018-07-02T08:19:23.359Z,21.69
2018-07-02T08:20:23.255Z,21.69
2018-07-02T08:21:23.256Z,21.81
2018-07-02T08:22:23.303Z,21.75
2018-07-02T08:23:23.353Z,21.81
2018-07-02T08:24:23.365Z,21.87
2018-07-02T08:25:23.368Z,21.94
2018-07-02T08:26:23.288Z,21.94
2018-07-02T08:27:23.711Z,22
2018-07-02T08:28:23.248Z,21.94
2018-07-02T08:29:23.289Z,22
2018-07-02T08:30:23.426Z,22.06
2018-07-02T08:31:23.307Z,22.06
2018-07-02T08:32:23.241Z,22.13
2018-07-02T08:33:23.264Z,22.13
2018-07-02T08:34:23.414Z,22.13
2018-07-02T08:35:23.272Z,22.19
2018-07-02T08:36:23.539Z,22.19
2018-07-02T08:37:23.285Z,22.13
2018-07-02T08:38:23.269Z,22.19
2018-07-02T08:39:23.247Z,22.19
2018-07-02T08:40:23.290Z,22.25
2018-07-02T08:41:23.649Z,22.19
2018-07-02T08:42:23.280Z,22.13
2018-07-02T08:43:23.283Z,22.19
2018-07-02T08:44:23.254Z,22.25
2018-07-02T08:45:23.245Z,22.25
2018-07-02T08:46:23.276Z,22.31
2018-07-02T08:47:23.279Z,22.31
2018-07-02T08:48:23.282Z,22.37
2018-07-02T08:49:23.270Z,22.44
2018-07-02T08:50:23.289Z,22.5
2018-07-02T08:51:23.444Z,22.5
2018-07-02T08:52:23.347Z,22.5
2018-07-02T08:53:23.277Z,22.56
2018-07-02T08:54:23.320Z,22.56
2018-07-02T08:55:23.299Z,22.69
2018-07-02T08:56:23.585Z,22.69
2018-07-02T08:57:23.308Z,22.56
2018-07-02T08:58:23.827Z,22.56
2018-07-02T08:59:23.317Z,22.56
2018-07-02T09:00:23.299Z,22.69
2018-07-02T09:01:23.427Z,22.69
2018-07-02T09:02:23.288Z,22.75
2018-07-02T09:03:23.558Z,22.81
2018-07-02T09:04:23.381Z,22.87
2018-07-02T09:05:23.437Z,22.87
2018-07-02T09:06:23.519Z,22.94
2018-07-02T09:07:23.700Z,23
2018-07-02T09:08:23.327Z,23.06
2018-07-02T09:09:23.344Z,23.19
2018-07-02T09:10:23.275Z,23.19
2018-07-02T09:11:23.328Z,23.25
2018-07-02T09:12:23.315Z,23.31
2018-07-02T09:13:23.338Z,23.31
2018-07-02T09:14:23.326Z,23.38
2018-07-02T09:15:23.329Z,23.38
2018-07-02T09:16:23.329Z,23.38
2018-07-02T09:17:23.508Z,23.44
2018-07-02T09:18:23.312Z,23.5
2018-07-02T09:19:23.330Z,23.56
2018-07-02T09:20:23.289Z,23.62
2018-07-02T09:21:23.374Z,23.62
2018-07-02T09:22:23.309Z,23.69
2018-07-02T09:23:23.458Z,23.69
2018-07-02T09:24:23.368Z,23.69
2018-07-02T09:25:23.338Z,23.75
2018-07-02T09:26:23.339Z,23.75
2018-07-02T09:27:23.297Z,23.75
2018-07-02T09:28:23.341Z,23.81
2018-07-02T09:29:23.556Z,23.87
2018-07-02T09:30:23.524Z,23.87
2018-07-02T09:31:23.898Z,24
2018-07-02T09:32:24.005Z,23.94
2018-07-02T09:33:23.432Z,24.06
2018-07-02T09:34:23.302Z,24.06
2018-07-02T09:35:23.447Z,24.12
2018-07-02T09:36:23.384Z,24.12
2018-07-02T09:37:23.333Z,24.19
2018-07-02T09:38:23.361Z,24.19
2018-07-02T09:39:24.136Z,24.25
2018-07-02T09:40:23.344Z,24.25
2018-07-02T09:41:23.438Z,24.25
2018-07-02T09:42:23.358Z,24.19
2018-07-02T09:43:23.351Z,24.19
2018-07-02T09:44:23.355Z,24.19
2018-07-02T09:45:23.332Z,24.25
2018-07-02T09:46:23.352Z,24.25
2018-07-02T09:47:23.375Z,24.25
2018-07-02T09:48:23.463Z,24.31
2018-07-02T09:49:23.791Z,24.31
2018-07-02T09:50:23.349Z,24.37
2018-07-02T09:51:23.354Z,24.37
2018-07-02T09:52:23.349Z,24.37
2018-07-02T09:53:23.366Z,24.44
2018-07-02T09:54:23.325Z,24.44
2018-07-02T09:55:23.315Z,24.44
2018-07-02T09:56:23.382Z,24.5
2018-07-02T09:57:23.396Z,24.5
2018-07-02T09:58:23.361Z,24.5
2018-07-02T09:59:23.335Z,24.56
2018-07-02T10:00:23.366Z,24.56
2018-07-02T10:01:23.342Z,24.56
2018-07-02T10:02:23.355Z,24.63
2018-07-02T10:03:23.364Z,24.63
2018-07-02T10:04:23.694Z,24.63
2018-07-02T10:05:23.552Z,24.69
2018-07-02T10:06:23.977Z,24.69
2018-07-02T10:07:23.367Z,24.69
2018-07-02T10:08:23.415Z,24.75
2018-07-02T10:09:23.390Z,24.81
2018-07-02T10:10:23.436Z,24.87
2018-07-02T10:11:23.381Z,24.87
2018-07-02T10:12:23.395Z,24.87
2018-07-02T10:13:23.393Z,25
2018-07-02T10:14:23.717Z,25.06
2018-07-02T10:15:23.545Z,25.06
2018-07-02T10:16:23.480Z,25.06
2018-07-02T10:17:23.412Z,25.12
2018-07-02T10:18:23.394Z,25.12
2018-07-02T10:19:23.574Z,25.19
2018-07-02T10:20:23.874Z,25.25
2018-07-02T10:21:23.448Z,25.25
2018-07-02T10:22:23.641Z,25.31
2018-07-02T10:23:23.585Z,25.31
2018-07-02T10:24:23.396Z,25.31
2018-07-02T10:25:23.417Z,25.37
2018-07-02T10:26:23.384Z,25.37
2018-07-02T10:27:23.452Z,25.37
2018-07-02T10:28:23.508Z,25.44
2018-07-02T10:29:23.770Z,25.37
2018-07-02T10:30:23.369Z,25.44
2018-07-02T10:31:25.389Z,25.44
2018-07-02T10:32:23.435Z,25.44
2018-07-02T10:33:23.399Z,25.44
2018-07-02T10:34:23.510Z,25.5
2018-07-02T10:35:23.409Z,25.5
2018-07-02T10:36:23.409Z,25.5
2018-07-02T10:37:23.384Z,25.5
2018-07-02T10:38:23.452Z,25.5
2018-07-02T10:39:23.575Z,25.56
2018-07-02T10:40:23.444Z,25.56
2018-07-02T10:41:23.427Z,25.56
2018-07-02T10:42:23.553Z,25.56
2018-07-02T10:43:23.439Z,25.62
2018-07-02T10:44:23.416Z,25.62
2018-07-02T10:45:23.516Z,25.62
2018-07-02T10:46:23.462Z,25.69
2018-07-02T10:47:23.400Z,25.62
2018-07-02T10:48:23.562Z,25.69
2018-07-02T10:49:23.440Z,25.75
2018-07-02T10:50:23.776Z,25.69
2018-07-02T10:51:23.393Z,25.69
2018-07-02T10:52:23.436Z,25.69
2018-07-02T10:53:23.440Z,25.75
2018-07-02T10:54:23.546Z,25.81
2018-07-02T10:55:23.512Z,25.81
2018-07-02T10:56:23.399Z,25.88
2018-07-02T10:57:23.411Z,25.94
2018-07-02T10:58:23.469Z,25.94
2018-07-02T10:59:23.420Z,26
2018-07-02T11:00:23.441Z,26
2018-07-02T11:01:23.972Z,25.94
2018-07-02T11:02:23.460Z,25.81
2018-07-02T11:03:23.539Z,25.88
2018-07-02T11:04:23.431Z,26
2018-07-02T11:05:23.415Z,26
2018-07-02T11:06:23.411Z,26
2018-07-02T11:07:23.394Z,26
2018-07-02T11:08:23.419Z,26.06
2018-07-02T11:09:23.436Z,26.12
2018-07-02T11:10:23.421Z,26.12
2018-07-02T11:11:23.452Z,26.12
2018-07-02T11:12:23.431Z,26.19
2018-07-02T11:13:23.445Z,26.19
2018-07-02T11:14:23.432Z,26.31
2018-07-02T11:15:23.427Z,26.31
2018-07-02T11:16:23.559Z,26.25
2018-07-02T11:17:23.442Z,26.37
2018-07-02T11:18:23.472Z,26.37
2018-07-02T11:19:23.449Z,26.44
2018-07-02T11:20:23.483Z,26.5
2018-07-02T11:21:23.475Z,26.5
2018-07-02T11:22:23.443Z,26.5
2018-07-02T11:23:23.576Z,26.56
2018-07-02T11:24:23.537Z,26.56
2018-07-02T11:25:23.496Z,26.62
2018-07-02T11:26:23.492Z,26.56
2018-07-02T11:27:23.513Z,26.56
2018-07-02T11:28:23.474Z,26.56
2018-07-02T11:29:23.451Z,26.62
2018-07-02T11:30:23.495Z,26.62
2018-07-02T11:31:23.493Z,26.62
2018-07-02T11:32:23.461Z,26.69
2018-07-02T11:33:23.584Z,26.62
2018-07-02T11:34:23.462Z,26.69
2018-07-02T11:35:23.494Z,26.75
2018-07-02T11:36:23.446Z,26.75
2018-07-02T11:37:23.926Z,26.81
2018-07-02T11:38:23.490Z,26.87
2018-07-02T11:39:23.494Z,26.87
2018-07-02T11:40:23.527Z,26.94
2018-07-02T11:41:23.495Z,27
2018-07-02T11:42:23.584Z,26.94
2018-07-02T11:43:23.448Z,26.87
2018-07-02T11:44:23.489Z,26.87
2018-07-02T11:45:23.532Z,26.94
2018-07-02T11:46:23.574Z,26.94
2018-07-02T11:47:23.671Z,27
2018-07-02T11:48:23.477Z,27.06
2018-07-02T11:49:23.547Z,27.06
2018-07-02T11:50:23.494Z,27.13
2018-07-02T11:51:23.525Z,27.13
2018-07-02T11:52:23.545Z,27.19
2018-07-02T11:53:23.516Z,27.13
2018-07-02T11:54:23.526Z,27.13
2018-07-02T11:55:23.543Z,27
2018-07-02T11:56:23.569Z,27
2018-07-02T11:57:23.983Z,26.94
2018-07-02T11:58:23.595Z,26.87
2018-07-02T11:59:23.639Z,26.94
2018-07-02T12:00:23.517Z,26.94
2018-07-02T12:01:23.579Z,27
2018-07-02T12:02:23.666Z,27
2018-07-02T12:03:23.528Z,27.06
2018-07-02T12:04:23.529Z,27.13
2018-07-02T12:05:23.590Z,27.19
2018-07-02T12:06:23.620Z,27.25
2018-07-02T12:07:23.557Z,27.31
2018-07-02T12:08:23.641Z,27.44
2018-07-02T12:09:23.676Z,27.44
2018-07-02T12:10:23.724Z,27.5
2018-07-02T12:11:23.525Z,27.56
2018-07-02T12:12:23.641Z,27.56
2018-07-02T12:13:23.704Z,27.56
2018-07-02T12:14:23.643Z,27.62
2018-07-02T12:15:24.243Z,27.56
2018-07-02T12:16:23.588Z,27.62
2018-07-02T12:17:23.615Z,27.69
2018-07-02T12:18:24.261Z,27.62
2018-07-02T12:19:23.573Z,27.62
2018-07-02T12:20:23.592Z,27.5
2018-07-02T12:21:23.551Z,27.56
2018-07-02T12:22:23.554Z,27.62
2018-07-02T12:23:23.635Z,27.69
2018-07-02T12:24:23.561Z,27.69
2018-07-02T12:25:23.566Z,27.75
2018-07-02T12:26:23.582Z,27.81
2018-07-02T12:27:24.558Z,27.75
2018-07-02T12:28:24.155Z,27.81
2018-07-02T12:29:25.085Z,27.81
2018-07-02T12:30:26.578Z,27.87
2018-07-02T12:31:23.660Z,27.94
2018-07-02T12:32:23.568Z,27.94
2018-07-02T12:33:25.499Z,28
2018-07-02T12:34:23.618Z,28
2018-07-02T12:35:24.352Z,28
2018-07-02T12:36:23.623Z,28.06
2018-07-02T12:37:23.760Z,28.06
2018-07-02T12:38:23.561Z,28.06
2018-07-02T12:39:23.538Z,28.06
2018-07-02T12:40:24.445Z,28.12
2018-07-02T12:41:23.649Z,28
2018-07-02T12:42:23.633Z,27.87
2018-07-02T12:43:24.867Z,27.87
2018-07-02T12:44:23.580Z,27.87
2018-07-02T12:45:23.568Z,27.94
2018-07-02T12:46:23.637Z,27.94
2018-07-02T12:47:23.592Z,27.87
2018-07-02T12:48:23.585Z,27.94
2018-07-02T12:49:24.090Z,28.06
2018-07-02T12:50:23.603Z,28.12
2018-07-02T12:51:23.590Z,28.06
2018-07-02T12:52:23.524Z,28
2018-07-02T12:53:23.534Z,28.06
2018-07-02T12:54:24.872Z,28
2018-07-02T12:55:23.618Z,28
2018-07-02T12:56:23.633Z,28.12
2018-07-02T12:57:23.583Z,28.19
2018-07-02T12:58:23.559Z,28.25
2018-07-02T12:59:23.611Z,28.25